createdAt,value
2022-10-29T00:07:34.071Z,13.02
2022-10-29T00:12:33.605Z,12.95
2022-10-29T00:17:33.774Z,12.88
2022-10-29T00:22:33.508Z,12.92
2022-10-29T00:27:34.002Z,12.95
2022-10-29T00:32:33.581Z,12.90
2022-10-29T00:37:33.692Z,12.87
2022-10-29T00:42:33.533Z,12.81
2022-10-29T00:47:33.690Z,13.00
2022-10-29T00:52:33.828Z,12.92
2022-10-29T00:57:33.628Z,12.82
2022-10-29T01:02:33.627Z,12.76
2022-10-29T01:07:33.632Z,12.72
2022-10-29T01:12:33.747Z,12.74
2022-10-29T01:17:33.601Z,12.68
2022-10-29T01:22:33.777Z,12.54
2022-10-29T01:27:33.569Z,12.51
2022-10-29T01:32:33.687Z,12.66
2022-10-29T01:37:33.848Z,12.41
2022-10-29T01:47:34.073Z,12.33
2022-10-29T01:52:33.558Z,12.28
2022-10-29T02:02:33.555Z,12.40
2022-10-29T02:07:33.583Z,12.52
2022-10-29T02:12:33.546Z,12.43
2022-10-29T02:17:33.573Z,12.46
2022-10-29T02:22:33.860Z,12.51
2022-10-29T02:27:33.695Z,12.58
2022-10-29T02:32:33.819Z,12.59
2022-10-29T02:37:33.627Z,12.60
2022-10-29T02:42:33.582Z,12.73
2022-10-29T02:47:33.605Z,12.68
2022-10-29T02:52:33.604Z,12.70
2022-10-29T02:57:33.923Z,12.56
2022-10-29T03:02:33.637Z,12.49
2022-10-29T03:07:34.118Z,12.61
2022-10-29T03:12:33.687Z,12.73
2022-10-29T03:17:33.597Z,12.58
2022-10-29T03:22:33.703Z,12.32
2022-10-29T03:27:33.625Z,12.34
2022-10-29T03:32:33.656Z,12.31
2022-10-29T03:37:33.800Z,12.22
2022-10-29T03:42:33.770Z,12.20
2022-10-29T03:47:33.767Z,12.16
2022-10-29T03:52:33.632Z,12.17
2022-10-29T03:57:33.738Z,12.23
2022-10-29T04:02:34.015Z,12.25
2022-10-29T04:07:33.698Z,12.10
2022-10-29T04:12:33.864Z,12.17
2022-10-29T04:17:33.644Z,12.07
2022-10-29T04:32:33.738Z,11.93
2022-10-29T04:37:33.932Z,11.94
2022-10-29T04:42:33.638Z,11.92
2022-10-29T04:47:33.637Z,12.01
2022-10-29T04:52:33.652Z,12.03
2022-10-29T04:57:33.664Z,12.07
2022-10-29T05:02:33.764Z,12.15
2022-10-29T05:07:33.691Z,12.09
2022-10-29T05:12:33.636Z,12.12
2022-10-29T05:17:33.813Z,12.02
2022-10-29T05:22:33.924Z,12.08
2022-10-29T05:27:33.785Z,12.01
2022-10-29T05:37:33.753Z,12.04
2022-10-29T05:42:33.652Z,12.18
2022-10-29T05:47:33.722Z,12.26
2022-10-29T05:52:33.834Z,12.21
2022-10-29T05:57:33.997Z,12.13
2022-10-29T06:02:33.942Z,11.90
2022-10-29T06:07:33.664Z,11.95
2022-10-29T06:12:34.891Z,12.02
2022-10-29T06:17:33.949Z,12.17
2022-10-29T06:22:33.717Z,12.28
2022-10-29T06:27:34.130Z,12.30
2022-10-29T06:32:33.843Z,12.41
2022-10-29T06:37:33.676Z,12.33
2022-10-29T06:42:34.003Z,12.15
2022-10-29T06:47:33.827Z,12.27
2022-10-29T06:52:33.695Z,12.22
2022-10-29T07:02:33.706Z,12.19
2022-10-29T07:07:33.792Z,12.13
2022-10-29T07:17:33.737Z,12.27
2022-10-29T07:22:34.896Z,12.19
2022-10-29T07:27:34.106Z,11.99
2022-10-29T07:32:33.694Z,12.00
2022-10-29T07:37:33.994Z,11.70
2022-10-29T07:42:33.713Z,11.78
2022-10-29T07:47:33.701Z,11.84
2022-10-29T07:52:33.740Z,11.72
2022-10-29T07:57:33.721Z,11.75
2022-10-29T08:02:33.700Z,11.88
2022-10-29T08:07:33.919Z,11.99
2022-10-29T08:12:34.065Z,11.92
2022-10-29T08:17:33.896Z,12.09
2022-10-29T08:22:34.026Z,12.02
2022-10-29T08:27:33.760Z,12.06
2022-10-29T08:32:33.994Z,12.27
2022-10-29T08:37:33.804Z,12.06
2022-10-29T08:42:33.752Z,12.13
2022-10-29T08:47:33.808Z,12.19
2022-10-29T08:52:33.740Z,12.26
2022-10-29T09:02:33.894Z,12.42
2022-10-29T09:07:33.755Z,12.39
2022-10-29T09:17:33.999Z,12.51
2022-10-29T09:22:33.806Z,12.43
2022-10-29T09:27:33.968Z,12.56
2022-10-29T09:32:33.827Z,12.57
2022-10-29T09:37:33.967Z,12.44
2022-10-29T09:42:34.151Z,12.16
2022-10-29T09:47:33.743Z,12.26
2022-10-29T09:52:34.045Z,12.21
2022-10-29T09:57:33.907Z,12.43
2022-10-29T10:02:34.135Z,12.51
2022-10-29T10:07:33.867Z,12.54
2022-10-29T10:12:33.956Z,12.41
2022-10-29T10:17:33.816Z,12.63
2022-10-29T10:22:33.804Z,12.73
2022-10-29T10:27:34.069Z,12.33
2022-10-29T10:32:33.895Z,12.31
2022-10-29T10:37:33.832Z,12.57
2022-10-29T10:42:33.934Z,12.66
2022-10-29T10:47:34.040Z,12.54
2022-10-29T10:52:33.892Z,12.43
2022-10-29T11:02:33.869Z,12.54
2022-10-29T11:07:33.996Z,12.43
2022-10-29T11:12:34.094Z,12.62
2022-10-29T11:17:33.933Z,12.66
2022-10-29T11:22:33.819Z,12.80
2022-10-29T11:27:33.915Z,12.92
2022-10-29T11:32:34.084Z,12.87
2022-10-29T11:37:33.882Z,13.13
2022-10-29T11:42:33.823Z,13.17
2022-10-29T11:47:33.858Z,13.13
2022-10-29T11:52:35.697Z,13.08
2022-10-29T11:57:34.415Z,13.12
2022-10-29T12:02:33.807Z,13.28
2022-10-29T12:07:34.129Z,13.19
2022-10-29T12:12:34.217Z,13.09
2022-10-29T12:17:34.476Z,13.05
2022-10-29T12:22:33.938Z,13.04
2022-10-29T12:27:33.874Z,12.99
2022-10-29T12:32:33.901Z,13.02
2022-10-29T12:37:34.045Z,13.09
2022-10-29T12:42:34.176Z,12.99
2022-10-29T12:47:33.826Z,13.08
2022-10-29T12:52:33.881Z,13.29
2022-10-29T12:57:33.864Z,13.34
2022-10-29T13:02:34.042Z,13.29
2022-10-29T13:07:33.904Z,13.36
2022-10-29T13:12:34.352Z,13.29
2022-10-29T13:17:33.983Z,13.37
2022-10-29T13:22:34.174Z,13.51
2022-10-29T13:27:34.100Z,13.40
2022-10-29T13:32:34.036Z,13.32
2022-10-29T13:37:34.172Z,13.29
2022-10-29T13:42:33.963Z,13.24
2022-10-29T13:47:33.890Z,13.33
2022-10-29T13:52:33.944Z,13.15
2022-10-29T13:57:34.107Z,13.31
2022-10-29T14:02:33.999Z,13.15
2022-10-29T14:07:34.081Z,13.14
2022-10-29T14:12:33.913Z,12.98
2022-10-29T14:17:34.052Z,13.05
2022-10-29T14:22:34.191Z,13.13
2022-10-29T14:27:33.973Z,13.22
2022-10-29T14:32:34.633Z,13.11
2022-10-29T14:42:34.147Z,13.03
2022-10-29T14:47:33.968Z,12.99
2022-10-29T14:52:34.104Z,13.08
2022-10-29T14:57:33.886Z,13.01
2022-10-29T15:02:38.024Z,12.94
2022-10-29T15:12:33.920Z,12.78
2022-10-29T15:17:34.190Z,12.80
2022-10-29T15:22:33.911Z,12.77
2022-10-29T15:27:34.196Z,12.74
2022-10-29T15:32:33.959Z,12.77
2022-10-29T15:37:34.119Z,12.72
2022-10-29T15:42:33.905Z,12.67
2022-10-29T15:47:33.927Z,12.60
2022-10-29T15:52:33.943Z,12.59
2022-10-29T15:57:33.972Z,12.77
2022-10-29T16:02:33.995Z,12.87
2022-10-29T16:07:34.054Z,12.72
2022-10-29T16:12:33.930Z,12.74
2022-10-29T16:17:34.004Z,12.66
2022-10-29T16:27:34.532Z,12.71
2022-10-29T16:32:34.117Z,12.75
2022-10-29T16:37:34.023Z,12.69
2022-10-29T16:42:34.083Z,12.72
2022-10-29T16:47:34.375Z,12.67
2022-10-29T16:52:34.014Z,12.68
2022-10-29T16:57:33.971Z,12.76
2022-10-29T17:02:34.019Z,12.71
2022-10-29T17:07:34.417Z,12.67
2022-10-29T17:12:34.761Z,12.66
2022-10-29T17:17:34.103Z,12.80
2022-10-29T17:22:34.010Z,12.73
2022-10-29T17:27:34.203Z,12.65
2022-10-29T17:32:33.946Z,12.66
2022-10-29T17:37:34.046Z,12.69
2022-10-29T17:42:34.196Z,12.67
2022-10-29T17:47:34.344Z,12.74
2022-10-29T17:52:34.353Z,12.81
2022-10-29T17:57:34.321Z,12.74
2022-10-29T18:02:34.157Z,12.75
2022-10-29T18:07:34.103Z,12.84
2022-10-29T18:12:34.135Z,12.88
2022-10-29T18:17:34.270Z,12.91
2022-10-29T18:22:34.056Z,12.85
2022-10-29T18:27:34.235Z,12.93
2022-10-29T18:32:34.010Z,12.95
2022-10-29T18:37:34.212Z,13.01
2022-10-29T18:42:34.008Z,12.97
2022-10-29T18:47:34.016Z,12.89
2022-10-29T18:52:34.005Z,12.94
2022-10-29T18:57:34.043Z,12.96
2022-10-29T19:02:34.467Z,12.99
2022-10-29T19:07:34.186Z,12.90
2022-10-29T19:12:34.429Z,12.89
2022-10-29T19:17:34.083Z,12.85
2022-10-29T19:22:34.024Z,12.81
2022-10-29T19:32:34.281Z,12.88
2022-10-29T19:37:34.334Z,12.86
2022-10-29T19:42:34.124Z,12.80
2022-10-29T19:47:34.312Z,12.81
2022-10-29T19:52:34.338Z,12.80
2022-10-29T19:57:35.018Z,12.83
2022-10-29T20:02:34.107Z,12.78
2022-10-29T20:07:34.073Z,12.88
2022-10-29T20:12:34.101Z,12.81
2022-10-29T20:17:34.125Z,12.88
2022-10-29T20:22:34.350Z,12.81
2022-10-29T20:27:34.199Z,12.79
2022-10-29T20:32:34.083Z,12.75
2022-10-29T20:37:34.343Z,12.87
2022-10-29T20:42:34.064Z,12.74
2022-10-29T20:47:34.085Z,12.75
2022-10-29T20:52:34.066Z,12.74
2022-10-29T20:57:34.202Z,12.73
2022-10-29T21:02:34.221Z,12.82
2022-10-29T21:07:34.045Z,12.83
2022-10-29T21:12:34.271Z,12.81
2022-10-29T21:17:34.374Z,12.84
2022-10-29T21:22:34.082Z,12.89
2022-10-29T21:27:34.344Z,12.88
2022-10-29T21:32:34.105Z,12.92
2022-10-29T21:37:34.285Z,12.91
2022-10-29T21:42:34.113Z,12.93
2022-10-29T21:47:34.253Z,12.87
2022-10-29T21:52:34.291Z,12.92
2022-10-29T21:57:34.216Z,12.86
2022-10-29T22:02:34.357Z,12.81
2022-10-29T22:07:34.094Z,12.85
2022-10-29T22:12:34.323Z,12.86
2022-10-29T22:17:34.088Z,12.84
2022-10-29T22:22:34.258Z,12.79
2022-10-29T22:27:34.094Z,12.91
2022-10-29T22:32:34.249Z,12.79
2022-10-29T22:37:34.424Z,12.78
2022-10-29T22:42:34.223Z,12.79
2022-10-29T22:47:34.136Z,12.85
2022-10-29T22:57:34.236Z,12.88
2022-10-29T23:02:34.203Z,12.74
2022-10-29T23:07:34.329Z,12.69
2022-10-29T23:17:34.550Z,12.71
2022-10-29T23:22:34.176Z,12.82
2022-10-29T23:27:34.267Z,12.80
2022-10-29T23:32:34.125Z,12.82
2022-10-29T23:37:34.157Z,12.78
2022-10-29T23:42:34.129Z,12.77
2022-10-29T23:47:34.177Z,12.73
2022-10-29T23:52:34.154Z,12.74
2022-10-29T23:57:34.175Z,12.76
